sensor_id;sensor_type;location;lat;lon;timestamp;P1;durP1;ratioP1;P2;durP2;ratioP2
67092;SDS011;54011;50.772;7.730;2023-03-01T00:01:30;18.70;;;7.68;;
67092;SDS011;54011;50.772;7.730;2023-03-01T00:03:57;16.17;;;7.93;;
67092;SDS011;54011;50.772;7.730;2023-03-01T00:06:24;19.13;;;8.27;;
67092;SDS011;54011;50.772;7.730;2023-03-01T00:08:50;15.93;;;7.95;;
67092;SDS011;54011;50.772;7.730;2023-03-01T00:11:17;15.48;;;7.07;;
67092;SDS011;54011;50.772;7.730;2023-03-01T00:13:49;15.25;;;7.72;;
67092;SDS011;54011;50.772;7.730;2023-03-01T00:16:17;17.05;;;8.45;;
67092;SDS011;54011;50.772;7.730;2023-03-01T00:18:44;13.00;;;6.45;;
67092;SDS011;54011;50.772;7.730;2023-03-01T00:21:10;13.95;;;6.40;;
67092;SDS011;54011;50.772;7.730;2023-03-01T00:23:36;12.63;;;6.10;;
67092;SDS011;54011;50.772;7.730;2023-03-01T00:26:07;15.38;;;6.95;;
67092;SDS011;54011;50.772;7.730;2023-03-01T00:28:38;16.23;;;6.88;;
67092;SDS011;54011;50.772;7.730;2023-03-01T00:31:05;13.27;;;6.00;;
67092;SDS011;54011;50.772;7.730;2023-03-01T00:36:01;11.77;;;5.80;;
67092;SDS011;54011;50.772;7.730;2023-03-01T00:38:29;11.93;;;6.30;;
67092;SDS011;54011;50.772;7.730;2023-03-01T00:41:02;15.05;;;6.95;;
67092;SDS011;54011;50.772;7.730;2023-03-01T00:43:32;14.30;;;6.25;;
67092;SDS011;54011;50.772;7.730;2023-03-01T00:46:02;15.90;;;6.43;;
67092;SDS011;54011;50.772;7.730;2023-03-01T00:48:29;16.85;;;7.13;;
67092;SDS011;54011;50.772;7.730;2023-03-01T00:50:55;14.25;;;6.82;;
67092;SDS011;54011;50.772;7.730;2023-03-01T00:53:21;13.52;;;6.97;;
67092;SDS011;54011;50.772;7.730;2023-03-01T00:55:47;15.05;;;7.15;;
67092;SDS011;54011;50.772;7.730;2023-03-01T00:58:12;17.25;;;7.35;;
67092;SDS011;54011;50.772;7.730;2023-03-01T01:00:37;14.18;;;6.40;;
67092;SDS011;54011;50.772;7.730;2023-03-01T01:03:03;17.27;;;6.93;;
67092;SDS011;54011;50.772;7.730;2023-03-01T01:05:29;18.95;;;7.97;;
67092;SDS011;54011;50.772;7.730;2023-03-01T01:07:55;16.40;;;6.82;;
67092;SDS011;54011;50.772;7.730;2023-03-01T01:10:21;16.15;;;7.80;;
67092;SDS011;54011;50.772;7.730;2023-03-01T01:12:46;15.88;;;6.57;;
67092;SDS011;54011;50.772;7.730;2023-03-01T01:15:13;16.10;;;6.95;;
67092;SDS011;54011;50.772;7.730;2023-03-01T01:17:39;16.10;;;7.75;;
67092;SDS011;54011;50.772;7.730;2023-03-01T01:20:05;16.05;;;6.70;;
67092;SDS011;54011;50.772;7.730;2023-03-01T01:22:32;14.52;;;6.82;;
67092;SDS011;54011;50.772;7.730;2023-03-01T01:25:00;15.95;;;7.32;;
67092;SDS011;54011;50.772;7.730;2023-03-01T01:27:29;16.63;;;8.23;;
67092;SDS011;54011;50.772;7.730;2023-03-01T01:29:54;11.43;;;6.07;;
67092;SDS011;54011;50.772;7.730;2023-03-01T01:32:20;16.70;;;7.90;;
67092;SDS011;54011;50.772;7.730;2023-03-01T01:34:46;14.40;;;7.13;;
67092;SDS011;54011;50.772;7.730;2023-03-01T01:37:13;16.75;;;7.82;;
67092;SDS011;54011;50.772;7.730;2023-03-01T01:39:38;13.93;;;7.07;;
67092;SDS011;54011;50.772;7.730;2023-03-01T01:42:04;13.77;;;7.18;;
67092;SDS011;54011;50.772;7.730;2023-03-01T01:44:33;14.85;;;7.22;;
67092;SDS011;54011;50.772;7.730;2023-03-01T01:47:04;15.85;;;7.45;;
67092;SDS011;54011;50.772;7.730;2023-03-01T01:49:41;15.90;;;7.13;;
67092;SDS011;54011;50.772;7.730;2023-03-01T01:52:11;12.50;;;6.43;;
67092;SDS011;54011;50.772;7.730;2023-03-01T01:54:46;15.07;;;7.05;;
67092;SDS011;54011;50.772;7.730;2023-03-01T01:57:18;13.20;;;6.82;;
67092;SDS011;54011;50.772;7.730;2023-03-01T01:59:48;14.43;;;7.25;;
67092;SDS011;54011;50.772;7.730;2023-03-01T02:02:18;11.98;;;6.72;;
67092;SDS011;54011;50.772;7.730;2023-03-01T02:04:44;12.02;;;6.25;;
67092;SDS011;54011;50.772;7.730;2023-03-01T02:07:17;14.00;;;6.20;;
67092;SDS011;54011;50.772;7.730;2023-03-01T02:09:49;12.32;;;6.00;;
67092;SDS011;54011;50.772;7.730;2023-03-01T02:12:18;16.33;;;7.63;;
67092;SDS011;54011;50.772;7.730;2023-03-01T02:14:46;11.77;;;5.65;;
67092;SDS011;54011;50.772;7.730;2023-03-01T02:17:12;12.50;;;6.07;;
67092;SDS011;54011;50.772;7.730;2023-03-01T02:19:43;14.23;;;6.82;;
67092;SDS011;54011;50.772;7.730;2023-03-01T02:22:23;14.55;;;7.10;;
67092;SDS011;54011;50.772;7.730;2023-03-01T02:27:41;16.40;;;7.65;;
67092;SDS011;54011;50.772;7.730;2023-03-01T02:30:19;14.55;;;7.75;;
67092;SDS011;54011;50.772;7.730;2023-03-01T02:32:46;17.92;;;8.07;;
67092;SDS011;54011;50.772;7.730;2023-03-01T02:35:14;18.17;;;7.82;;
67092;SDS011;54011;50.772;7.730;2023-03-01T02:37:42;16.80;;;7.93;;
67092;SDS011;54011;50.772;7.730;2023-03-01T02:40:12;17.77;;;8.85;;
67092;SDS011;54011;50.772;7.730;2023-03-01T02:42:50;17.20;;;7.80;;
67092;SDS011;54011;50.772;7.730;2023-03-01T02:45:17;18.98;;;8.13;;
67092;SDS011;54011;50.772;7.730;2023-03-01T02:47:43;17.58;;;8.95;;
67092;SDS011;54011;50.772;7.730;2023-03-01T02:53:04;14.38;;;7.75;;
67092;SDS011;54011;50.772;7.730;2023-03-01T02:55:36;12.40;;;6.72;;
67092;SDS011;54011;50.772;7.730;2023-03-01T02:58:02;15.75;;;7.65;;
67092;SDS011;54011;50.772;7.730;2023-03-01T03:00:39;19.27;;;8.65;;
67092;SDS011;54011;50.772;7.730;2023-03-01T03:03:13;16.88;;;7.60;;
67092;SDS011;54011;50.772;7.730;2023-03-01T03:05:40;12.98;;;6.38;;
67092;SDS011;54011;50.772;7.730;2023-03-01T03:08:07;12.60;;;5.75;;
67092;SDS011;54011;50.772;7.730;2023-03-01T03:10:36;11.52;;;6.32;;
67092;SDS011;54011;50.772;7.730;2023-03-01T03:13:07;14.95;;;6.57;;
67092;SDS011;54011;50.772;7.730;2023-03-01T03:15:38;13.55;;;6.40;;
67092;SDS011;54011;50.772;7.730;2023-03-01T03:18:07;16.10;;;7.68;;
67092;SDS011;54011;50.772;7.730;2023-03-01T03:20:34;16.45;;;7.35;;
67092;SDS011;54011;50.772;7.730;2023-03-01T03:23:01;15.68;;;8.32;;
67092;SDS011;54011;50.772;7.730;2023-03-01T03:25:28;14.23;;;7.65;;
67092;SDS011;54011;50.772;7.730;2023-03-01T03:27:55;16.23;;;7.50;;
67092;SDS011;54011;50.772;7.730;2023-03-01T03:30:27;13.60;;;5.10;;
67092;SDS011;54011;50.772;7.730;2023-03-01T03:32:54;12.32;;;5.97;;
67092;SDS011;54011;50.772;7.730;2023-03-01T03:35:25;16.30;;;6.68;;
67092;SDS011;54011;50.772;7.730;2023-03-01T03:37:55;16.10;;;7.20;;
67092;SDS011;54011;50.772;7.730;2023-03-01T03:40:38;19.70;;;8.25;;
67092;SDS011;54011;50.772;7.730;2023-03-01T03:43:06;16.50;;;8.20;;
67092;SDS011;54011;50.772;7.730;2023-03-01T03:45:33;18.77;;;9.00;;
67092;SDS011;54011;50.772;7.730;2023-03-01T03:48:00;23.67;;;9.95;;
67092;SDS011;54011;50.772;7.730;2023-03-01T03:50:28;22.55;;;9.25;;
67092;SDS011;54011;50.772;7.730;2023-03-01T03:52:54;17.55;;;8.75;;
67092;SDS011;54011;50.772;7.730;2023-03-01T03:55:19;17.85;;;8.40;;
67092;SDS011;54011;50.772;7.730;2023-03-01T03:57:46;17.25;;;9.18;;
67092;SDS011;54011;50.772;7.730;2023-03-01T04:00:20;21.05;;;9.13;;
67092;SDS011;54011;50.772;7.730;2023-03-01T04:02:49;18.17;;;8.38;;
67092;SDS011;54011;50.772;7.730;2023-03-01T04:05:16;18.33;;;8.77;;
67092;SDS011;54011;50.772;7.730;2023-03-01T04:07:44;17.10;;;8.75;;
67092;SDS011;54011;50.772;7.730;2023-03-01T04:10:12;21.75;;;8.88;;
67092;SDS011;54011;50.772;7.730;2023-03-01T04:12:40;16.35;;;7.85;;
67092;SDS011;54011;50.772;7.730;2023-03-01T04:15:08;21.20;;;9.10;;
67092;SDS011;54011;50.772;7.730;2023-03-01T04:17:41;22.23;;;9.27;;
67092;SDS011;54011;50.772;7.730;2023-03-01T04:20:08;16.20;;;7.95;;
67092;SDS011;54011;50.772;7.730;2023-03-01T04:22:46;20.40;;;8.73;;
67092;SDS011;54011;50.772;7.730;2023-03-01T04:25:12;18.98;;;8.75;;
67092;SDS011;54011;50.772;7.730;2023-03-01T04:27:39;18.42;;;8.82;;
67092;SDS011;54011;50.772;7.730;2023-03-01T04:30:06;18.75;;;8.95;;
67092;SDS011;54011;50.772;7.730;2023-03-01T04:32:33;18.15;;;8.82;;
67092;SDS011;54011;50.772;7.730;2023-03-01T04:34:59;19.58;;;8.98;;
67092;SDS011;54011;50.772;7.730;2023-03-01T04:37:25;17.25;;;8.95;;
67092;SDS011;54011;50.772;7.730;2023-03-01T04:39:51;21.17;;;9.07;;
67092;SDS011;54011;50.772;7.730;2023-03-01T04:42:17;19.17;;;9.20;;
67092;SDS011;54011;50.772;7.730;2023-03-01T04:44:43;17.73;;;8.63;;
67092;SDS011;54011;50.772;7.730;2023-03-01T04:47:09;23.20;;;9.75;;
67092;SDS011;54011;50.772;7.730;2023-03-01T04:49:36;15.00;;;8.30;;
67092;SDS011;54011;50.772;7.730;2023-03-01T04:52:02;18.40;;;9.13;;
67092;SDS011;54011;50.772;7.730;2023-03-01T04:54:28;18.30;;;8.60;;
67092;SDS011;54011;50.772;7.730;2023-03-01T04:56:55;18.90;;;8.48;;
67092;SDS011;54011;50.772;7.730;2023-03-01T04:59:22;19.15;;;8.85;;
67092;SDS011;54011;50.772;7.730;2023-03-01T05:01:51;17.77;;;8.90;;
67092;SDS011;54011;50.772;7.730;2023-03-01T05:04:20;21.88;;;9.15;;
67092;SDS011;54011;50.772;7.730;2023-03-01T05:06:46;18.67;;;9.68;;
67092;SDS011;54011;50.772;7.730;2023-03-01T05:09:12;17.67;;;9.02;;
67092;SDS011;54011;50.772;7.730;2023-03-01T05:11:37;21.02;;;9.88;;
67092;SDS011;54011;50.772;7.730;2023-03-01T05:14:03;17.83;;;8.52;;
67092;SDS011;54011;50.772;7.730;2023-03-01T05:16:33;19.08;;;9.40;;
67092;SDS011;54011;50.772;7.730;2023-03-01T05:18:59;20.00;;;9.15;;
67092;SDS011;54011;50.772;7.730;2023-03-01T05:21:25;20.25;;;9.38;;
67092;SDS011;54011;50.772;7.730;2023-03-01T05:23:51;21.50;;;9.63;;
67092;SDS011;54011;50.772;7.730;2023-03-01T05:26:18;15.80;;;7.95;;
67092;SDS011;54011;50.772;7.730;2023-03-01T05:28:45;18.50;;;9.27;;
67092;SDS011;54011;50.772;7.730;2023-03-01T05:31:11;17.25;;;9.18;;
67092;SDS011;54011;50.772;7.730;2023-03-01T05:33:37;22.25;;;9.38;;
67092;SDS011;54011;50.772;7.730;2023-03-01T05:36:05;17.77;;;8.82;;
67092;SDS011;54011;50.772;7.730;2023-03-01T05:38:31;19.67;;;9.23;;
67092;SDS011;54011;50.772;7.730;2023-03-01T05:40:57;21.40;;;8.75;;
67092;SDS011;54011;50.772;7.730;2023-03-01T05:43:22;18.65;;;9.68;;
67092;SDS011;54011;50.772;7.730;2023-03-01T05:45:48;23.50;;;9.52;;
67092;SDS011;54011;50.772;7.730;2023-03-01T05:48:14;22.70;;;10.35;;
67092;SDS011;54011;50.772;7.730;2023-03-01T05:50:43;29.02;;;10.27;;
67092;SDS011;54011;50.772;7.730;2023-03-01T05:53:10;15.90;;;8.30;;
67092;SDS011;54011;50.772;7.730;2023-03-01T05:55:38;19.23;;;9.27;;
67092;SDS011;54011;50.772;7.730;2023-03-01T05:58:04;16.30;;;8.65;;
67092;SDS011;54011;50.772;7.730;2023-03-01T06:00:32;21.70;;;8.90;;
67092;SDS011;54011;50.772;7.730;2023-03-01T06:02:58;18.25;;;8.80;;
67092;SDS011;54011;50.772;7.730;2023-03-01T06:05:26;22.00;;;7.97;;
67092;SDS011;54011;50.772;7.730;2023-03-01T06:07:52;18.42;;;8.38;;
67092;SDS011;54011;50.772;7.730;2023-03-01T06:10:19;18.55;;;8.40;;
67092;SDS011;54011;50.772;7.730;2023-03-01T06:12:46;17.70;;;8.63;;
67092;SDS011;54011;50.772;7.730;2023-03-01T06:15:12;20.42;;;9.30;;
67092;SDS011;54011;50.772;7.730;2023-03-01T06:17:40;19.80;;;9.48;;
67092;SDS011;54011;50.772;7.730;2023-03-01T06:20:08;17.67;;;8.48;;
67092;SDS011;54011;50.772;7.730;2023-03-01T06:22:43;19.70;;;9.27;;
67092;SDS011;54011;50.772;7.730;2023-03-01T06:25:10;21.70;;;8.57;;
67092;SDS011;54011;50.772;7.730;2023-03-01T06:27:37;17.30;;;8.05;;
67092;SDS011;54011;50.772;7.730;2023-03-01T06:30:03;21.58;;;8.50;;
67092;SDS011;54011;50.772;7.730;2023-03-01T06:32:29;18.60;;;8.75;;
67092;SDS011;54011;50.772;7.730;2023-03-01T06:34:56;18.58;;;8.82;;
67092;SDS011;54011;50.772;7.730;2023-03-01T06:37:21;20.83;;;8.38;;
67092;SDS011;54011;50.772;7.730;2023-03-01T06:39:46;18.48;;;9.35;;
67092;SDS011;54011;50.772;7.730;2023-03-01T06:42:12;17.77;;;8.52;;
67092;SDS011;54011;50.772;7.730;2023-03-01T06:44:37;20.48;;;8.80;;
67092;SDS011;54011;50.772;7.730;2023-03-01T06:47:03;22.10;;;9.57;;
67092;SDS011;54011;50.772;7.730;2023-03-01T06:49:29;17.83;;;8.80;;
67092;SDS011;54011;50.772;7.730;2023-03-01T06:51:55;23.33;;;10.35;;
67092;SDS011;54011;50.772;7.730;2023-03-01T06:54:21;25.10;;;11.63;;
67092;SDS011;54011;50.772;7.730;2023-03-01T06:56:49;20.65;;;10.38;;
67092;SDS011;54011;50.772;7.730;2023-03-01T06:59:16;28.23;;;10.27;;
67092;SDS011;54011;50.772;7.730;2023-03-01T07:01:42;20.30;;;11.45;;
67092;SDS011;54011;50.772;7.730;2023-03-01T07:04:09;20.65;;;8.32;;
67092;SDS011;54011;50.772;7.730;2023-03-01T07:06:35;16.02;;;8.32;;
67092;SDS011;54011;50.772;7.730;2023-03-01T07:09:03;16.73;;;7.85;;
67092;SDS011;54011;50.772;7.730;2023-03-01T07:11:28;15.18;;;7.90;;
67092;SDS011;54011;50.772;7.730;2023-03-01T07:13:54;18.45;;;8.55;;
67092;SDS011;54011;50.772;7.730;2023-03-01T07:16:20;20.58;;;9.32;;
67092;SDS011;54011;50.772;7.730;2023-03-01T07:18:45;19.45;;;9.40;;
67092;SDS011;54011;50.772;7.730;2023-03-01T07:21:12;22.50;;;10.30;;
67092;SDS011;54011;50.772;7.730;2023-03-01T07:23:40;21.50;;;10.05;;
67092;SDS011;54011;50.772;7.730;2023-03-01T07:26:06;25.23;;;9.93;;
67092;SDS011;54011;50.772;7.730;2023-03-01T07:28:31;20.77;;;10.23;;
67092;SDS011;54011;50.772;7.730;2023-03-01T07:31:03;22.25;;;10.07;;
67092;SDS011;54011;50.772;7.730;2023-03-01T07:33:29;17.80;;;9.27;;
67092;SDS011;54011;50.772;7.730;2023-03-01T07:35:55;21.45;;;10.15;;
67092;SDS011;54011;50.772;7.730;2023-03-01T07:38:25;18.88;;;9.20;;
67092;SDS011;54011;50.772;7.730;2023-03-01T07:40:52;16.92;;;8.75;;
67092;SDS011;54011;50.772;7.730;2023-03-01T07:43:17;18.63;;;7.68;;
67092;SDS011;54011;50.772;7.730;2023-03-01T07:45:42;18.48;;;8.10;;
67092;SDS011;54011;50.772;7.730;2023-03-01T07:48:08;18.58;;;9.38;;
67092;SDS011;54011;50.772;7.730;2023-03-01T07:50:34;25.55;;;13.32;;
67092;SDS011;54011;50.772;7.730;2023-03-01T07:53:01;30.45;;;14.82;;
67092;SDS011;54011;50.772;7.730;2023-03-01T07:55:27;27.60;;;13.07;;
67092;SDS011;54011;50.772;7.730;2023-03-01T07:57:54;21.23;;;11.55;;
67092;SDS011;54011;50.772;7.730;2023-03-01T08:00:19;21.55;;;10.30;;
67092;SDS011;54011;50.772;7.730;2023-03-01T08:02:46;22.55;;;10.00;;
67092;SDS011;54011;50.772;7.730;2023-03-01T08:05:11;24.10;;;10.60;;
67092;SDS011;54011;50.772;7.730;2023-03-01T08:07:37;23.48;;;10.23;;
67092;SDS011;54011;50.772;7.730;2023-03-01T08:10:03;22.27;;;10.00;;
67092;SDS011;54011;50.772;7.730;2023-03-01T08:12:28;27.67;;;11.80;;
67092;SDS011;54011;50.772;7.730;2023-03-01T08:14:54;25.27;;;12.70;;
67092;SDS011;54011;50.772;7.730;2023-03-01T08:17:20;22.42;;;10.45;;
67092;SDS011;54011;50.772;7.730;2023-03-01T08:19:45;19.05;;;9.93;;
67092;SDS011;54011;50.772;7.730;2023-03-01T08:22:11;21.90;;;10.13;;
67092;SDS011;54011;50.772;7.730;2023-03-01T08:24:37;20.73;;;10.05;;
67092;SDS011;54011;50.772;7.730;2023-03-01T08:27:04;21.70;;;10.43;;
67092;SDS011;54011;50.772;7.730;2023-03-01T08:29:31;20.00;;;10.40;;
67092;SDS011;54011;50.772;7.730;2023-03-01T08:31:57;18.80;;;9.73;;
67092;SDS011;54011;50.772;7.730;2023-03-01T08:34:22;20.52;;;8.73;;
67092;SDS011;54011;50.772;7.730;2023-03-01T08:36:48;15.70;;;8.57;;
67092;SDS011;54011;50.772;7.730;2023-03-01T08:39:15;19.55;;;10.00;;
67092;SDS011;54011;50.772;7.730;2023-03-01T08:41:43;17.73;;;9.40;;
67092;SDS011;54011;50.772;7.730;2023-03-01T08:44:09;14.98;;;8.73;;
67092;SDS011;54011;50.772;7.730;2023-03-01T08:46:37;16.60;;;9.18;;
67092;SDS011;54011;50.772;7.730;2023-03-01T08:49:09;20.90;;;8.90;;
67092;SDS011;54011;50.772;7.730;2023-03-01T08:51:37;14.15;;;7.35;;
67092;SDS011;54011;50.772;7.730;2023-03-01T08:54:09;19.45;;;8.85;;
67092;SDS011;54011;50.772;7.730;2023-03-01T08:56:37;18.02;;;8.90;;
67092;SDS011;54011;50.772;7.730;2023-03-01T08:59:02;17.60;;;8.73;;
67092;SDS011;54011;50.772;7.730;2023-03-01T09:01:27;17.55;;;9.45;;
67092;SDS011;54011;50.772;7.730;2023-03-01T09:03:53;17.88;;;9.32;;
67092;SDS011;54011;50.772;7.730;2023-03-01T09:06:19;18.50;;;8.88;;
67092;SDS011;54011;50.772;7.730;2023-03-01T09:08:47;18.75;;;9.43;;
67092;SDS011;54011;50.772;7.730;2023-03-01T09:11:15;15.27;;;7.40;;
67092;SDS011;54011;50.772;7.730;2023-03-01T09:13:43;17.90;;;9.05;;
67092;SDS011;54011;50.772;7.730;2023-03-01T09:16:10;17.42;;;8.70;;
67092;SDS011;54011;50.772;7.730;2023-03-01T09:18:37;15.52;;;9.02;;
67092;SDS011;54011;50.772;7.730;2023-03-01T09:21:04;16.42;;;8.70;;
67092;SDS011;54011;50.772;7.730;2023-03-01T09:23:35;16.80;;;8.93;;
67092;SDS011;54011;50.772;7.730;2023-03-01T09:26:02;16.70;;;8.68;;
67092;SDS011;54011;50.772;7.730;2023-03-01T09:28:28;15.98;;;8.23;;
67092;SDS011;54011;50.772;7.730;2023-03-01T09:30:53;16.48;;;8.20;;
67092;SDS011;54011;50.772;7.730;2023-03-01T09:33:23;14.73;;;8.57;;
67092;SDS011;54011;50.772;7.730;2023-03-01T09:35:55;19.50;;;7.72;;
67092;SDS011;54011;50.772;7.730;2023-03-01T09:38:21;17.02;;;8.63;;
67092;SDS011;54011;50.772;7.730;2023-03-01T09:40:48;12.25;;;6.47;;
67092;SDS011;54011;50.772;7.730;2023-03-01T09:45:58;11.52;;;5.75;;
67092;SDS011;54011;50.772;7.730;2023-03-01T09:48:28;10.70;;;5.65;;
67092;SDS011;54011;50.772;7.730;2023-03-01T09:51:29;14.18;;;6.13;;
67092;SDS011;54011;50.772;7.730;2023-03-01T09:53:58;9.75;;;5.15;;
67092;SDS011;54011;50.772;7.730;2023-03-01T09:56:32;14.75;;;6.05;;
67092;SDS011;54011;50.772;7.730;2023-03-01T10:10:06;9.55;;;4.72;;
67092;SDS011;54011;50.772;7.730;2023-03-01T10:12:34;9.90;;;4.97;;
67092;SDS011;54011;50.772;7.730;2023-03-01T10:20:37;14.55;;;5.50;;
67092;SDS011;54011;50.772;7.730;2023-03-01T10:23:10;11.85;;;5.22;;
67092;SDS011;54011;50.772;7.730;2023-03-01T10:25:56;11.68;;;5.63;;
67092;SDS011;54011;50.772;7.730;2023-03-01T10:31:18;9.90;;;5.10;;
67092;SDS011;54011;50.772;7.730;2023-03-01T10:36:16;9.07;;;5.30;;
67092;SDS011;54011;50.772;7.730;2023-03-01T10:38:49;9.65;;;4.28;;
67092;SDS011;54011;50.772;7.730;2023-03-01T10:41:19;10.35;;;5.40;;
67092;SDS011;54011;50.772;7.730;2023-03-01T10:46:34;11.82;;;5.55;;
67092;SDS011;54011;50.772;7.730;2023-03-01T10:51:40;12.13;;;5.90;;
67092;SDS011;54011;50.772;7.730;2023-03-01T10:54:18;12.20;;;5.18;;
67092;SDS011;54011;50.772;7.730;2023-03-01T10:56:47;12.48;;;5.65;;
67092;SDS011;54011;50.772;7.730;2023-03-01T10:59:22;10.20;;;5.30;;
67092;SDS011;54011;50.772;7.730;2023-03-01T11:02:00;10.50;;;5.05;;
67092;SDS011;54011;50.772;7.730;2023-03-01T11:04:29;11.98;;;5.60;;
67092;SDS011;54011;50.772;7.730;2023-03-01T11:07:00;11.48;;;4.80;;
67092;SDS011;54011;50.772;7.730;2023-03-01T11:09:30;9.98;;;5.40;;
67092;SDS011;54011;50.772;7.730;2023-03-01T11:12:03;9.98;;;5.05;;
67092;SDS011;54011;50.772;7.730;2023-03-01T11:14:33;12.98;;;5.40;;
67092;SDS011;54011;50.772;7.730;2023-03-01T11:17:47;8.90;;;5.03;;
67092;SDS011;54011;50.772;7.730;2023-03-01T11:20:05;9.43;;;5.22;;
67092;SDS011;54011;50.772;7.730;2023-03-01T11:22:54;9.25;;;4.95;;
67092;SDS011;54011;50.772;7.730;2023-03-01T11:25:24;15.88;;;5.65;;
67092;SDS011;54011;50.772;7.730;2023-03-01T11:27:52;11.73;;;5.43;;
67092;SDS011;54011;50.772;7.730;2023-03-01T11:33:24;12.80;;;6.18;;
67092;SDS011;54011;50.772;7.730;2023-03-01T11:38:48;13.98;;;5.57;;
67092;SDS011;54011;50.772;7.730;2023-03-01T11:41:19;12.30;;;5.60;;
67092;SDS011;54011;50.772;7.730;2023-03-01T11:43:49;11.73;;;5.90;;
67092;SDS011;54011;50.772;7.730;2023-03-01T11:51:38;9.15;;;4.63;;
67092;SDS011;54011;50.772;7.730;2023-03-01T11:54:17;11.68;;;5.25;;
67092;SDS011;54011;50.772;7.730;2023-03-01T11:56:47;8.20;;;4.15;;
67092;SDS011;54011;50.772;7.730;2023-03-01T12:04:36;9.90;;;5.38;;
67092;SDS011;54011;50.772;7.730;2023-03-01T12:07:32;9.80;;;4.95;;
67092;SDS011;54011;50.772;7.730;2023-03-01T12:10:17;11.63;;;4.90;;
67092;SDS011;54011;50.772;7.730;2023-03-01T12:18:16;10.85;;;4.47;;
67092;SDS011;54011;50.772;7.730;2023-03-01T12:21:05;7.93;;;4.50;;
67092;SDS011;54011;50.772;7.730;2023-03-01T12:24:04;9.15;;;4.63;;
67092;SDS011;54011;50.772;7.730;2023-03-01T12:27:07;10.55;;;4.80;;
67092;SDS011;54011;50.772;7.730;2023-03-01T12:35:40;6.90;;;3.88;;
67092;SDS011;54011;50.772;7.730;2023-03-01T12:38:42;7.55;;;4.03;;
67092;SDS011;54011;50.772;7.730;2023-03-01T12:46:52;7.95;;;4.13;;
67092;SDS011;54011;50.772;7.730;2023-03-01T12:49:32;7.78;;;3.22;;
67092;SDS011;54011;50.772;7.730;2023-03-01T12:54:38;7.75;;;3.60;;
67092;SDS011;54011;50.772;7.730;2023-03-01T12:59:43;7.05;;;3.42;;
67092;SDS011;54011;50.772;7.730;2023-03-01T13:02:27;6.45;;;3.25;;
67092;SDS011;54011;50.772;7.730;2023-03-01T13:05:06;6.40;;;3.63;;
67092;SDS011;54011;50.772;7.730;2023-03-01T13:15:35;8.35;;;4.40;;
67092;SDS011;54011;50.772;7.730;2023-03-01T13:18:02;7.35;;;4.07;;
67092;SDS011;54011;50.772;7.730;2023-03-01T13:28:37;7.90;;;4.13;;
67092;SDS011;54011;50.772;7.730;2023-03-01T13:31:04;7.65;;;3.60;;
67092;SDS011;54011;50.772;7.730;2023-03-01T13:35:58;8.90;;;3.50;;
67092;SDS011;54011;50.772;7.730;2023-03-01T13:41:17;10.52;;;4.10;;
67092;SDS011;54011;50.772;7.730;2023-03-01T13:44:25;7.15;;;3.70;;
67092;SDS011;54011;50.772;7.730;2023-03-01T13:49:51;6.85;;;4.00;;
67092;SDS011;54011;50.772;7.730;2023-03-01T13:55:06;7.78;;;4.25;;
67092;SDS011;54011;50.772;7.730;2023-03-01T13:57:39;7.50;;;3.83;;
67092;SDS011;54011;50.772;7.730;2023-03-01T14:00:07;10.80;;;3.83;;
67092;SDS011;54011;50.772;7.730;2023-03-01T14:02:59;6.65;;;3.60;;
67092;SDS011;54011;50.772;7.730;2023-03-01T14:05:32;7.65;;;3.90;;
67092;SDS011;54011;50.772;7.730;2023-03-01T14:07:58;6.07;;;3.50;;
67092;SDS011;54011;50.772;7.730;2023-03-01T14:10:30;10.43;;;3.85;;
67092;SDS011;54011;50.772;7.730;2023-03-01T14:15:58;9.50;;;3.63;;
67092;SDS011;54011;50.772;7.730;2023-03-01T14:21:29;10.48;;;3.97;;
67092;SDS011;54011;50.772;7.730;2023-03-01T14:23:55;7.47;;;3.83;;
67092;SDS011;54011;50.772;7.730;2023-03-01T14:26:21;8.35;;;3.85;;
67092;SDS011;54011;50.772;7.730;2023-03-01T14:28:48;8.15;;;3.92;;
67092;SDS011;54011;50.772;7.730;2023-03-01T14:36:29;7.20;;;3.40;;
67092;SDS011;54011;50.772;7.730;2023-03-01T14:38:56;6.35;;;3.60;;
67092;SDS011;54011;50.772;7.730;2023-03-01T14:41:31;7.07;;;3.60;;
67092;SDS011;54011;50.772;7.730;2023-03-01T14:46:40;8.60;;;3.88;;
67092;SDS011;54011;50.772;7.730;2023-03-01T14:51:37;8.18;;;3.70;;
67092;SDS011;54011;50.772;7.730;2023-03-01T14:54:21;6.70;;;3.58;;
67092;SDS011;54011;50.772;7.730;2023-03-01T14:56:51;7.57;;;3.38;;
67092;SDS011;54011;50.772;7.730;2023-03-01T14:59:22;7.65;;;3.85;;
67092;SDS011;54011;50.772;7.730;2023-03-01T15:01:49;7.72;;;4.00;;
67092;SDS011;54011;50.772;7.730;2023-03-01T15:04:16;9.07;;;3.83;;
67092;SDS011;54011;50.772;7.730;2023-03-01T15:06:43;8.80;;;3.85;;
67092;SDS011;54011;50.772;7.730;2023-03-01T15:09:14;6.82;;;3.60;;
67092;SDS011;54011;50.772;7.730;2023-03-01T15:11:41;8.20;;;3.80;;
67092;SDS011;54011;50.772;7.730;2023-03-01T15:16:54;7.57;;;4.07;;
67092;SDS011;54011;50.772;7.730;2023-03-01T15:19:21;8.07;;;4.00;;
67092;SDS011;54011;50.772;7.730;2023-03-01T15:21:51;9.23;;;3.90;;
67092;SDS011;54011;50.772;7.730;2023-03-01T15:24:19;8.43;;;4.25;;
67092;SDS011;54011;50.772;7.730;2023-03-01T15:26:58;7.63;;;4.10;;
67092;SDS011;54011;50.772;7.730;2023-03-01T15:29:30;9.43;;;4.55;;
67092;SDS011;54011;50.772;7.730;2023-03-01T15:31:59;9.35;;;4.82;;
67092;SDS011;54011;50.772;7.730;2023-03-01T15:34:32;9.13;;;4.63;;
67092;SDS011;54011;50.772;7.730;2023-03-01T15:37:00;8.13;;;4.30;;
67092;SDS011;54011;50.772;7.730;2023-03-01T15:42:12;10.77;;;4.82;;
67092;SDS011;54011;50.772;7.730;2023-03-01T15:45:10;8.07;;;4.78;;
67092;SDS011;54011;50.772;7.730;2023-03-01T15:47:46;8.02;;;4.47;;
67092;SDS011;54011;50.772;7.730;2023-03-01T15:50:29;9.23;;;4.60;;
67092;SDS011;54011;50.772;7.730;2023-03-01T15:52:58;8.95;;;4.38;;
67092;SDS011;54011;50.772;7.730;2023-03-01T15:55:29;9.57;;;4.43;;
67092;SDS011;54011;50.772;7.730;2023-03-01T15:58:05;8.98;;;4.32;;
67092;SDS011;54011;50.772;7.730;2023-03-01T16:00:43;7.72;;;4.03;;
67092;SDS011;54011;50.772;7.730;2023-03-01T16:03:11;8.70;;;4.63;;
67092;SDS011;54011;50.772;7.730;2023-03-01T16:05:37;7.57;;;4.15;;
67092;SDS011;54011;50.772;7.730;2023-03-01T16:08:03;8.25;;;4.38;;
67092;SDS011;54011;50.772;7.730;2023-03-01T16:10:34;9.27;;;4.78;;
67092;SDS011;54011;50.772;7.730;2023-03-01T16:13:00;10.32;;;4.63;;
67092;SDS011;54011;50.772;7.730;2023-03-01T16:15:26;7.57;;;4.13;;
67092;SDS011;54011;50.772;7.730;2023-03-01T16:17:54;11.10;;;4.20;;
67092;SDS011;54011;50.772;7.730;2023-03-01T16:20:20;7.53;;;4.15;;
67092;SDS011;54011;50.772;7.730;2023-03-01T16:22:46;13.63;;;4.35;;
67092;SDS011;54011;50.772;7.730;2023-03-01T16:25:13;8.30;;;4.30;;
67092;SDS011;54011;50.772;7.730;2023-03-01T16:27:43;9.43;;;4.25;;
67092;SDS011;54011;50.772;7.730;2023-03-01T16:30:10;8.45;;;4.50;;
67092;SDS011;54011;50.772;7.730;2023-03-01T16:32:37;10.45;;;4.50;;
67092;SDS011;54011;50.772;7.730;2023-03-01T16:35:07;7.83;;;4.20;;
67092;SDS011;54011;50.772;7.730;2023-03-01T16:37:34;9.25;;;4.38;;
67092;SDS011;54011;50.772;7.730;2023-03-01T16:40:02;10.40;;;5.05;;
67092;SDS011;54011;50.772;7.730;2023-03-01T16:42:32;9.52;;;4.47;;
67092;SDS011;54011;50.772;7.730;2023-03-01T16:45:03;9.50;;;4.78;;
67092;SDS011;54011;50.772;7.730;2023-03-01T16:47:30;8.20;;;4.40;;
67092;SDS011;54011;50.772;7.730;2023-03-01T16:49:55;12.40;;;5.00;;
67092;SDS011;54011;50.772;7.730;2023-03-01T16:52:21;12.27;;;4.60;;
67092;SDS011;54011;50.772;7.730;2023-03-01T16:54:47;10.30;;;5.00;;